Helsinge, Denmark
Current Conditions -  °F | °C
As of 6:20 PM on Friday 31 Oct 2014 (Local Time) from EKRK Reporting Station
Moderate Fog Moderate Fog  
Wind Chill: 52°   Ceiling: 200
Heat Index: 52°   Visibility: 0.12mi
Dew Point: 52°   Wind: 3mph
Humidity: 100%   Direction: 140°SE
Pressure: 30.18"   Gusts: NA
Location:  56.02°N, 12.2°E
Report Text: EKRK 311720Z AUTO 14003KT 0200NDV R11/0750N R29/1000NFG VV002 11/11 Q1022
Loading
Personal Weather Stations






























Interactive Weather Map
Tropical Storm Tracking
New forecast layout! Learn more

10-Day Weather Forecast

Advertisements
Track Severe Weather on mobile